createdAt,value
2018-04-08T00:01:41.650Z,86.35
2018-04-08T00:11:37.907Z,86.45
2018-04-08T00:21:33.349Z,86.76
2018-04-08T00:31:30.788Z,87.26
2018-04-08T00:41:26.850Z,87.67
2018-04-08T00:51:22.275Z,87.57
2018-04-08T01:01:21.143Z,88.39
2018-04-08T01:11:17.756Z,87.57
2018-04-08T01:21:13.228Z,88.43
2018-04-08T01:31:09.080Z,88.73
2018-04-08T01:41:04.387Z,89.45
2018-04-08T01:51:01.615Z,89.75
2018-04-08T02:00:57.861Z,89.55
2018-04-08T02:10:53.828Z,89.45
2018-04-08T02:20:50.435Z,89.86
2018-04-08T02:30:44.984Z,90.47
2018-04-08T02:40:42.932Z,89.96
2018-04-08T02:50:41.253Z,90.71
2018-04-08T03:00:37.111Z,89.75
2018-04-08T03:10:33.444Z,90.00
2018-04-08T03:20:31.227Z,90.16
2018-04-08T03:30:28.157Z,91.22
2018-04-08T03:40:23.147Z,90.61
2018-04-08T03:50:21.695Z,91.47
2018-04-08T04:00:17.948Z,91.67
2018-04-08T04:10:13.480Z,92.84
2018-04-08T04:20:10.589Z,92.94
2018-04-08T04:30:06.168Z,92.94
2018-04-08T04:40:01.342Z,93.15
2018-04-08T04:49:57.747Z,92.74
2018-04-08T04:59:56.099Z,92.94
2018-04-08T05:09:48.981Z,91.88
2018-04-08T05:19:41.960Z,91.53
2018-04-08T05:29:39.114Z,90.47
2018-04-08T05:39:36.612Z,90.92
2018-04-08T05:49:27.324Z,89.65
2018-04-08T05:59:25.516Z,89.04
2018-04-08T06:09:23.413Z,87.94
2018-04-08T06:19:19.348Z,88.49
2018-04-08T06:29:11.876Z,85.55
2018-04-08T06:39:09.335Z,85.31
2018-04-08T06:49:04.378Z,85.31
2018-04-08T06:58:56.486Z,85.05
2018-04-08T07:08:52.732Z,83.09
2018-04-08T07:18:49.678Z,82.38
2018-04-08T07:28:47.818Z,80.37
2018-04-08T07:38:44.110Z,80.88
2018-04-08T07:48:41.806Z,79.36
2018-04-08T07:58:39.981Z,79.42
2018-04-08T08:08:35.643Z,82.24
2018-04-08T08:18:29.849Z,83.06
2018-04-08T08:28:23.599Z,82.38
2018-04-08T08:38:19.673Z,82.14
2018-04-08T08:48:14.419Z,80.84
2018-04-08T08:58:10.848Z,79.41
2018-04-08T09:08:07.654Z,75.73
2018-04-08T09:18:04.238Z,74.91
2018-04-08T09:27:50.337Z,75.69
2018-04-08T09:37:40.827Z,74.95
2018-04-08T09:47:38.136Z,73.19
2018-04-08T09:57:32.843Z,72.88
2018-04-08T10:07:26.185Z,69.75
2018-04-08T10:17:23.488Z,65.95
2018-04-08T10:27:18.892Z,67.33
2018-04-08T10:37:14.580Z,63.90
2018-04-08T10:47:11.472Z,67.07
2018-04-08T10:56:48.522Z,69.61
2018-04-08T11:06:25.774Z,67.55
2018-04-08T11:16:06.522Z,67.80
2018-04-08T11:25:36.245Z,63.42
2018-04-08T11:35:13.926Z,58.71
2018-04-08T11:44:51.429Z,57.84
2018-04-08T11:54:29.814Z,57.67
2018-04-08T12:04:07.781Z,53.72
2018-04-08T12:13:43.953Z,55.58
2018-04-08T12:23:21.658Z,55.58
2018-04-08T12:33:04.267Z,54.70
2018-04-08T12:42:33.873Z,54.30
2018-04-08T12:52:11.353Z,54.17
2018-04-08T13:01:51.925Z,50.94
2018-04-08T13:11:31.030Z,51.17
2018-04-08T13:21:10.288Z,47.53
2018-04-08T13:30:49.276Z,48.68
2018-04-08T13:40:28.272Z,43.29
2018-04-08T13:50:08.227Z,42.63
2018-04-08T13:59:47.727Z,44.32
2018-04-08T14:09:31.288Z,42.85
2018-04-08T14:19:02.110Z,46.27
2018-04-08T14:28:40.402Z,44.42
2018-04-08T14:38:20.612Z,40.22
2018-04-08T14:48:03.277Z,37.98
2018-04-08T14:57:32.852Z,39.92
2018-04-08T15:07:06.737Z,37.41
2018-04-08T15:16:40.048Z,41.25
2018-04-08T15:26:14.932Z,42.43
2018-04-08T15:35:53.310Z,40.50
2018-04-08T15:45:32.000Z,38.76
2018-04-08T15:55:08.786Z,40.39
2018-04-08T16:04:40.822Z,41.97
2018-04-08T16:14:06.995Z,41.67
2018-04-08T16:23:42.683Z,45.17
2018-04-08T16:33:18.856Z,50.91
2018-04-08T16:42:55.073Z,49.95
2018-04-08T16:52:31.058Z,55.46
2018-04-08T17:02:06.995Z,51.73
2018-04-08T17:11:42.664Z,62.31
2018-04-08T17:21:18.198Z,58.20
2018-04-08T17:30:54.235Z,69.27
2018-04-08T17:40:31.835Z,64.85
2018-04-08T17:49:59.782Z,67.03
2018-04-08T17:59:54.634Z,65.44
2018-04-08T18:09:46.686Z,64.39
2018-04-08T18:19:41.655Z,65.97
2018-04-08T18:29:38.369Z,66.50
2018-04-08T18:39:32.602Z,68.70
2018-04-08T18:49:26.777Z,69.13
2018-04-08T18:59:30.275Z,69.17
2018-04-08T19:09:22.959Z,73.90
2018-04-08T19:19:19.584Z,73.57
2018-04-08T19:29:14.742Z,75.94
2018-04-08T19:39:11.740Z,77.37
2018-04-08T19:49:03.408Z,76.65
2018-04-08T19:58:58.636Z,78.42
2018-04-08T20:08:54.129Z,78.36
2018-04-08T20:18:49.763Z,77.98
2018-04-08T20:28:46.834Z,78.64
2018-04-08T20:38:40.409Z,74.49
2018-04-08T20:48:37.729Z,78.53
2018-04-08T20:58:34.633Z,79.32
2018-04-08T21:08:29.717Z,79.46
2018-04-08T21:18:24.872Z,80.73
2018-04-08T21:28:21.992Z,83.15
2018-04-08T21:38:19.409Z,81.27
2018-04-08T21:48:15.782Z,82.27
2018-04-08T21:58:11.593Z,82.89
2018-04-08T22:08:08.811Z,83.23
2018-04-08T22:18:05.131Z,82.89
2018-04-08T22:28:01.372Z,85.11
2018-04-08T22:37:54.732Z,84.80
2018-04-08T22:47:52.323Z,86.90
2018-04-08T22:57:47.541Z,86.18
2018-04-08T23:07:41.603Z,87.24
2018-04-08T23:17:37.941Z,86.73
2018-04-08T23:27:34.675Z,88.72
2018-04-08T23:37:31.831Z,85.80
2018-04-08T23:47:27.821Z,87.79
2018-04-08T23:57:22.481Z,87.85
